createdAt,value
2018-08-21T00:00:13.511Z,0
2018-08-21T00:01:15.609Z,0
2018-08-21T00:02:17.702Z,0
2018-08-21T00:03:20.089Z,0
2018-08-21T00:04:22.194Z,0
2018-08-21T00:05:24.290Z,0
2018-08-21T00:06:26.394Z,0
2018-08-21T00:07:28.796Z,0
2018-08-21T00:08:30.882Z,0
2018-08-21T00:09:33.367Z,0
2018-08-21T00:10:35.470Z,0
2018-08-21T00:11:37.940Z,0
2018-08-21T00:12:40.427Z,0
2018-08-21T00:13:43.303Z,0
2018-08-21T00:14:45.392Z,0
2018-08-21T00:15:47.507Z,0
2018-08-21T00:16:49.605Z,0
2018-08-21T00:17:51.702Z,0
2018-08-21T00:18:53.788Z,0
2018-08-21T00:19:55.885Z,0
2018-08-21T00:20:58.281Z,0
2018-08-21T00:22:00.376Z,0
2018-08-21T00:23:02.858Z,0
2018-08-21T00:24:05.280Z,0
2018-08-21T00:25:07.368Z,0
2018-08-21T00:26:09.464Z,0
2018-08-21T00:27:11.553Z,0
2018-08-21T00:28:13.663Z,0
2018-08-21T00:29:15.750Z,0
2018-08-21T00:30:18.137Z,0
2018-08-21T00:31:20.238Z,0
2018-08-21T00:32:22.604Z,0
2018-08-21T00:33:24.709Z,0
2018-08-21T00:34:26.802Z,0
2018-08-21T00:35:28.969Z,0
2018-08-21T00:36:31.064Z,0
2018-08-21T00:37:33.168Z,0
2018-08-21T00:38:35.259Z,0
2018-08-21T00:39:37.367Z,0
2018-08-21T00:40:39.459Z,0
2018-08-21T00:41:41.553Z,0
2018-08-21T00:42:43.652Z,0
2018-08-21T00:43:45.753Z,0
2018-08-21T00:44:47.832Z,0
2018-08-21T00:45:49.930Z,0
2018-08-21T00:46:52.025Z,0
2018-08-21T00:47:54.113Z,0
2018-08-21T00:48:56.221Z,0
2018-08-21T00:49:58.310Z,0
2018-08-21T00:51:00.404Z,0
2018-08-21T00:52:02.489Z,0
2018-08-21T00:53:04.602Z,0
2018-08-21T00:54:06.687Z,0
2018-08-21T00:55:08.784Z,0
2018-08-21T00:56:10.891Z,0
2018-08-21T00:57:13.258Z,0
2018-08-21T00:58:15.362Z,0
2018-08-21T00:59:17.453Z,0
2018-08-21T01:00:19.840Z,0
2018-08-21T01:01:22.211Z,0
2018-08-21T01:02:24.312Z,0
2018-08-21T01:03:26.409Z,0
2018-08-21T01:04:28.892Z,0
2018-08-21T01:05:31.005Z,0
2018-08-21T01:06:33.091Z,0
2018-08-21T01:07:35.191Z,0
2018-08-21T01:08:37.590Z,0
2018-08-21T01:09:39.688Z,0
2018-08-21T01:10:41.770Z,0
2018-08-21T01:11:43.872Z,0
2018-08-21T01:12:45.958Z,0
2018-08-21T01:13:48.055Z,0
2018-08-21T01:14:50.162Z,0
2018-08-21T01:15:52.256Z,0
2018-08-21T01:16:55.036Z,0
2018-08-21T01:17:57.145Z,0
2018-08-21T01:18:59.241Z,0
2018-08-21T01:20:01.331Z,0
2018-08-21T01:21:03.434Z,0
2018-08-21T01:22:05.519Z,0
2018-08-21T01:23:07.611Z,0
2018-08-21T01:24:09.704Z,0
2018-08-21T01:25:11.807Z,0
2018-08-21T01:26:14.272Z,0
2018-08-21T01:27:16.374Z,0
2018-08-21T01:28:18.470Z,0
2018-08-21T01:29:20.944Z,0
2018-08-21T01:30:23.442Z,0
2018-08-21T01:31:25.526Z,0
2018-08-21T01:32:27.625Z,0
2018-08-21T01:33:30.009Z,0
2018-08-21T01:34:32.405Z,0
2018-08-21T01:35:34.887Z,0
2018-08-21T01:36:37.029Z,0
2018-08-21T01:37:39.119Z,0
2018-08-21T01:38:41.226Z,0
2018-08-21T01:39:43.311Z,0
2018-08-21T01:40:45.403Z,0
2018-08-21T01:41:47.515Z,0
2018-08-21T01:42:49.611Z,0
2018-08-21T01:43:51.985Z,0
2018-08-21T01:44:54.376Z,0
2018-08-21T01:45:56.460Z,0
2018-08-21T01:46:58.558Z,0
2018-08-21T01:48:00.662Z,0
2018-08-21T01:49:03.067Z,0
2018-08-21T01:50:05.159Z,0
2018-08-21T01:51:07.259Z,0
2018-08-21T01:52:09.349Z,0
2018-08-21T01:53:11.825Z,0
2018-08-21T01:54:13.927Z,0
2018-08-21T01:55:16.006Z,0
2018-08-21T01:56:18.110Z,0
2018-08-21T01:57:20.213Z,0
2018-08-21T01:58:22.320Z,0
2018-08-21T01:59:24.796Z,0
2018-08-21T02:00:27.192Z,0
2018-08-21T02:01:29.290Z,0
2018-08-21T02:02:31.379Z,0
2018-08-21T02:03:33.483Z,0
2018-08-21T02:04:35.574Z,0
2018-08-21T02:05:37.667Z,0
2018-08-21T02:06:39.754Z,0
2018-08-21T02:07:41.863Z,0
2018-08-21T02:08:43.950Z,0
2018-08-21T02:09:46.050Z,0
2018-08-21T02:10:48.150Z,0
2018-08-21T02:11:50.228Z,0
2018-08-21T02:12:52.330Z,0
2018-08-21T02:13:54.427Z,0
2018-08-21T02:14:56.922Z,0
2018-08-21T02:15:59.018Z,0
2018-08-21T02:17:01.109Z,0
2018-08-21T02:18:03.204Z,0
2018-08-21T02:19:05.580Z,0
2018-08-21T02:20:07.671Z,0
2018-08-21T02:21:10.354Z,0
2018-08-21T02:22:12.442Z,0
2018-08-21T02:23:14.916Z,0
2018-08-21T02:24:17.021Z,0
2018-08-21T02:25:19.403Z,0
2018-08-21T02:26:21.492Z,0
2018-08-21T02:27:23.594Z,0
2018-08-21T02:28:25.969Z,0
2018-08-21T02:29:28.072Z,0
2018-08-21T02:30:30.555Z,0
2018-08-21T02:31:32.952Z,0
2018-08-21T02:32:35.611Z,0
2018-08-21T02:33:37.713Z,0
2018-08-21T02:34:40.100Z,0
2018-08-21T02:35:42.196Z,0
2018-08-21T02:36:44.296Z,0
2018-08-21T02:37:46.388Z,0
2018-08-21T02:38:48.866Z,0
2018-08-21T02:39:51.244Z,0
2018-08-21T02:40:53.351Z,0
2018-08-21T02:41:55.743Z,0
2018-08-21T02:42:57.843Z,0
2018-08-21T02:44:00.240Z,0
2018-08-21T02:45:02.369Z,0
2018-08-21T02:46:04.432Z,0
2018-08-21T02:47:06.838Z,0
2018-08-21T02:48:08.923Z,0
2018-08-21T02:49:11.019Z,0
2018-08-21T02:50:13.118Z,0
2018-08-21T02:51:15.212Z,0
2018-08-21T02:52:17.685Z,0
2018-08-21T02:53:19.789Z,0
2018-08-21T02:54:22.177Z,0
2018-08-21T02:55:24.271Z,0
2018-08-21T02:56:26.747Z,0
2018-08-21T02:57:28.851Z,0
2018-08-21T02:58:30.946Z,0
2018-08-21T02:59:33.033Z,0
2018-08-21T03:00:35.137Z,0
2018-08-21T03:01:37.512Z,0
2018-08-21T03:02:39.997Z,0
2018-08-21T03:03:42.397Z,0
2018-08-21T03:04:44.889Z,0
2018-08-21T03:05:46.972Z,0
2018-08-21T03:06:50.052Z,0
2018-08-21T03:07:52.149Z,0
2018-08-21T03:08:54.236Z,0
2018-08-21T03:09:56.360Z,0
2018-08-21T03:10:58.757Z,0
2018-08-21T03:12:01.928Z,0
2018-08-21T03:13:04.018Z,0
2018-08-21T03:14:06.132Z,0
2018-08-21T03:15:08.225Z,0
2018-08-21T03:16:10.328Z,0
2018-08-21T03:17:12.825Z,0
2018-08-21T03:18:14.900Z,0
2018-08-21T03:19:17.003Z,0
2018-08-21T03:20:19.098Z,0
2018-08-21T03:21:21.181Z,0
2018-08-21T03:22:23.284Z,0
2018-08-21T03:23:25.392Z,0
2018-08-21T03:24:27.482Z,0
2018-08-21T03:25:29.584Z,0
2018-08-21T03:26:31.684Z,0
2018-08-21T03:27:34.078Z,0
2018-08-21T03:28:36.172Z,0
2018-08-21T03:29:38.277Z,0
2018-08-21T03:30:40.747Z,0
2018-08-21T03:31:43.157Z,0
2018-08-21T03:32:45.258Z,0
2018-08-21T03:33:47.344Z,0
2018-08-21T03:34:49.453Z,0
2018-08-21T03:35:51.545Z,0
2018-08-21T03:36:53.638Z,0
2018-08-21T03:37:56.115Z,0
2018-08-21T03:38:58.514Z,0
2018-08-21T03:40:00.603Z,0
2018-08-21T03:41:02.987Z,0
2018-08-21T03:42:05.380Z,0
2018-08-21T03:43:07.850Z,0
2018-08-21T03:44:09.951Z,0
2018-08-21T03:45:12.051Z,0
2018-08-21T03:46:14.444Z,0
2018-08-21T03:47:16.543Z,0
2018-08-21T03:48:18.627Z,0
2018-08-21T03:49:20.730Z,0
2018-08-21T03:50:22.822Z,0
2018-08-21T03:51:24.927Z,0
2018-08-21T03:52:27.011Z,0
2018-08-21T03:53:29.106Z,0
2018-08-21T03:54:31.210Z,0
2018-08-21T03:55:33.311Z,0
2018-08-21T03:56:35.396Z,0
2018-08-21T03:57:37.494Z,0
2018-08-21T03:58:40.169Z,0
2018-08-21T03:59:42.268Z,0
2018-08-21T04:00:44.673Z,1
2018-08-21T04:01:47.059Z,1
2018-08-21T04:02:49.439Z,1
2018-08-21T04:03:51.830Z,1
2018-08-21T04:04:53.937Z,1
2018-08-21T04:05:56.016Z,1
2018-08-21T04:06:58.107Z,1
2018-08-21T04:08:00.218Z,1
2018-08-21T04:09:02.311Z,1
2018-08-21T04:10:04.406Z,2
2018-08-21T04:11:06.492Z,2
2018-08-21T04:12:08.598Z,2
2018-08-21T04:13:11.071Z,2
2018-08-21T04:14:13.163Z,2
2018-08-21T04:15:15.268Z,2
2018-08-21T04:16:17.343Z,3
2018-08-21T04:17:20.138Z,3
2018-08-21T04:18:22.231Z,3
2018-08-21T04:19:24.325Z,3
2018-08-21T04:20:26.410Z,3
2018-08-21T04:21:28.818Z,3
2018-08-21T04:22:30.909Z,4
2018-08-21T04:23:33.686Z,4
2018-08-21T04:24:38.260Z,4
2018-08-21T04:25:40.302Z,4
2018-08-21T04:26:42.392Z,5
2018-08-21T04:27:44.494Z,5
2018-08-21T04:28:46.590Z,5
2018-08-21T04:29:48.674Z,5
2018-08-21T04:30:51.063Z,5
2018-08-21T04:31:53.440Z,6
2018-08-21T04:32:55.539Z,6
2018-08-21T04:33:57.641Z,6
2018-08-21T04:34:59.741Z,6
2018-08-21T04:36:01.827Z,7
2018-08-21T04:37:03.940Z,7
2018-08-21T04:38:06.061Z,7
2018-08-21T04:39:08.135Z,7
2018-08-21T04:40:10.246Z,8
2018-08-21T04:41:12.632Z,8
2018-08-21T04:42:14.730Z,8
2018-08-21T04:43:16.825Z,8
2018-08-21T04:44:19.232Z,9
2018-08-21T04:45:21.312Z,9
2018-08-21T04:46:23.538Z,9
2018-08-21T04:47:25.507Z,9
2018-08-21T04:48:27.589Z,10
2018-08-21T04:49:30.083Z,10
2018-08-21T04:50:32.166Z,10
2018-08-21T04:51:34.262Z,10
2018-08-21T04:52:36.747Z,11
2018-08-21T04:53:38.866Z,11
2018-08-21T04:54:41.649Z,11
2018-08-21T04:55:43.756Z,11
2018-08-21T04:56:45.862Z,11
2018-08-21T04:57:47.943Z,12
2018-08-21T04:58:50.539Z,12
2018-08-21T04:59:53.012Z,12
2018-08-21T05:00:55.098Z,12
2018-08-21T05:01:57.194Z,12
2018-08-21T05:02:59.292Z,12
2018-08-21T05:04:01.384Z,12
2018-08-21T05:05:04.166Z,12
2018-08-21T05:06:06.852Z,12
2018-08-21T05:07:08.937Z,13
2018-08-21T05:08:11.625Z,13
2018-08-21T05:09:13.725Z,13
2018-08-21T05:10:15.805Z,14
2018-08-21T05:11:17.905Z,14
2018-08-21T05:12:20.286Z,14
2018-08-21T05:13:22.371Z,14
2018-08-21T05:14:24.477Z,15
2018-08-21T05:15:26.957Z,15
2018-08-21T05:16:29.048Z,15
2018-08-21T05:17:31.135Z,16
2018-08-21T05:18:33.254Z,16
2018-08-21T05:19:35.340Z,17
2018-08-21T05:20:37.820Z,17
2018-08-21T05:21:39.924Z,17
2018-08-21T05:22:42.022Z,18
2018-08-21T05:23:44.717Z,18
2018-08-21T05:24:46.812Z,19
2018-08-21T05:25:49.296Z,19
2018-08-21T05:26:51.400Z,19
2018-08-21T05:27:53.485Z,20
2018-08-21T05:28:55.591Z,20
2018-08-21T05:29:58.383Z,20
2018-08-21T05:31:00.464Z,21
2018-08-21T05:32:02.566Z,21
2018-08-21T05:33:05.059Z,21
2018-08-21T05:34:07.145Z,22
2018-08-21T05:35:09.243Z,22
2018-08-21T05:36:11.347Z,22
2018-08-21T05:37:13.832Z,22
2018-08-21T05:38:16.238Z,23
2018-08-21T05:39:18.326Z,23
2018-08-21T05:40:20.414Z,23
2018-08-21T05:41:22.896Z,23
2018-08-21T05:42:25.392Z,24
2018-08-21T05:43:27.778Z,24
2018-08-21T05:44:29.876Z,24
2018-08-21T05:45:31.980Z,24
2018-08-21T05:46:34.171Z,24
2018-08-21T05:47:36.279Z,24
2018-08-21T05:48:38.374Z,24
2018-08-21T05:49:40.466Z,24
2018-08-21T05:50:42.857Z,24
2018-08-21T05:51:44.966Z,25
2018-08-21T05:52:47.053Z,25
2018-08-21T05:53:49.144Z,25
2018-08-21T05:54:51.247Z,25
2018-08-21T05:55:53.741Z,25
2018-08-21T05:56:55.850Z,26
2018-08-21T05:57:57.947Z,26
2018-08-21T05:59:00.047Z,26
2018-08-21T06:00:02.427Z,27
2018-08-21T06:01:04.917Z,27
2018-08-21T06:02:07.012Z,27
2018-08-21T06:03:09.392Z,27
2018-08-21T06:04:11.888Z,28
2018-08-21T06:05:13.976Z,28
2018-08-21T06:06:16.066Z,28
2018-08-21T06:07:18.170Z,28
2018-08-21T06:08:20.266Z,29
2018-08-21T06:09:22.356Z,29
2018-08-21T06:10:24.454Z,29
2018-08-21T06:11:27.224Z,29
2018-08-21T06:12:29.322Z,30
2018-08-21T06:13:31.427Z,30
2018-08-21T06:14:33.527Z,30
2018-08-21T06:15:35.612Z,30
2018-08-21T06:16:37.723Z,31
2018-08-21T06:17:39.821Z,31
2018-08-21T06:18:42.205Z,31
2018-08-21T06:19:44.306Z,31
2018-08-21T06:20:46.389Z,32
2018-08-21T06:21:48.488Z,32
2018-08-21T06:22:50.583Z,33
2018-08-21T06:23:52.694Z,33
2018-08-21T06:24:55.459Z,33
2018-08-21T06:25:57.479Z,35
2018-08-21T06:26:59.580Z,36
2018-08-21T06:28:01.667Z,37
2018-08-21T06:29:03.780Z,38
2018-08-21T06:30:05.869Z,39
2018-08-21T06:31:07.968Z,39
2018-08-21T06:32:10.356Z,39
2018-08-21T06:33:12.468Z,39
2018-08-21T06:34:14.555Z,39
2018-08-21T06:35:16.660Z,39
2018-08-21T06:36:18.795Z,41
2018-08-21T06:37:20.838Z,42
2018-08-21T06:38:22.944Z,41
2018-08-21T06:39:25.050Z,41
2018-08-21T06:40:27.147Z,43
2018-08-21T06:41:29.246Z,44
2018-08-21T06:42:31.339Z,45
2018-08-21T06:43:33.440Z,45
2018-08-21T06:44:35.533Z,46
2018-08-21T06:45:37.633Z,47
2018-08-21T06:46:40.367Z,50
2018-08-21T06:47:42.375Z,51
2018-08-21T06:48:44.464Z,52
2018-08-21T06:49:46.889Z,51
2018-08-21T06:50:48.986Z,50
2018-08-21T06:51:51.082Z,49
2018-08-21T06:52:53.210Z,47
2018-08-21T06:53:55.276Z,46
2018-08-21T06:54:57.374Z,46
2018-08-21T06:55:59.477Z,45
2018-08-21T06:57:01.879Z,44
2018-08-21T06:58:03.959Z,43
2018-08-21T06:59:06.071Z,44
2018-08-21T07:00:08.183Z,44
2018-08-21T07:01:10.273Z,45
2018-08-21T07:02:12.388Z,47
2018-08-21T07:03:14.479Z,49
2018-08-21T07:04:16.578Z,51
2018-08-21T07:05:18.677Z,53
2018-08-21T07:06:20.789Z,55
2018-08-21T07:07:22.883Z,57
2018-08-21T07:08:25.280Z,60
2018-08-21T07:09:27.773Z,64
2018-08-21T07:10:30.153Z,67
2018-08-21T07:11:32.554Z,69
2018-08-21T07:12:34.952Z,70
2018-08-21T07:13:37.045Z,73
2018-08-21T07:14:39.149Z,75
2018-08-21T07:15:41.842Z,76
2018-08-21T07:16:43.941Z,76
2018-08-21T07:17:46.037Z,76
2018-08-21T07:18:48.526Z,76
2018-08-21T07:19:50.687Z,76
2018-08-21T07:20:52.739Z,76
2018-08-21T07:21:55.126Z,76
2018-08-21T07:22:57.237Z,79
2018-08-21T07:23:59.335Z,76
2018-08-21T07:25:01.444Z,73
2018-08-21T07:26:03.556Z,70
2018-08-21T07:27:05.649Z,65
2018-08-21T07:28:07.756Z,61
2018-08-21T07:29:09.874Z,55
2018-08-21T07:30:12.353Z,53
2018-08-21T07:31:14.745Z,54
2018-08-21T07:32:17.159Z,53
2018-08-21T07:33:19.260Z,52
2018-08-21T07:34:21.356Z,51
2018-08-21T07:35:23.485Z,51
2018-08-21T07:36:25.968Z,52
2018-08-21T07:37:28.462Z,52
2018-08-21T07:38:30.560Z,52
2018-08-21T07:39:32.674Z,53
2018-08-21T07:40:34.772Z,53
2018-08-21T07:41:36.886Z,53
2018-08-21T07:42:38.993Z,53
2018-08-21T07:43:41.081Z,53
2018-08-21T07:44:43.194Z,53
2018-08-21T07:45:45.295Z,54
2018-08-21T07:46:47.786Z,54
2018-08-21T07:47:52.012Z,54
2018-08-21T07:48:54.505Z,54
2018-08-21T07:49:56.665Z,56
2018-08-21T07:50:59.065Z,55
2018-08-21T07:52:01.580Z,56
2018-08-21T07:53:03.696Z,56
2018-08-21T07:54:05.884Z,56
2018-08-21T07:55:08.275Z,57
2018-08-21T07:56:11.071Z,58
2018-08-21T07:57:13.176Z,59
2018-08-21T07:58:15.273Z,61
2018-08-21T07:59:17.380Z,61
2018-08-21T08:00:19.754Z,62
2018-08-21T08:01:21.858Z,63
2018-08-21T08:02:23.965Z,63
2018-08-21T08:03:26.078Z,65
2018-08-21T08:04:28.173Z,67
2018-08-21T08:05:30.282Z,116
2018-08-21T08:06:32.381Z,204
2018-08-21T08:07:34.477Z,223
2018-08-21T08:08:36.913Z,200
2018-08-21T08:09:39.401Z,133
2018-08-21T08:10:41.507Z,140
2018-08-21T08:11:43.611Z,215
2018-08-21T08:12:45.733Z,227
2018-08-21T08:13:47.946Z,185
2018-08-21T08:14:49.968Z,105
2018-08-21T08:15:52.370Z,83
2018-08-21T08:16:54.757Z,78
2018-08-21T08:17:57.159Z,274
2018-08-21T08:18:59.276Z,227
2018-08-21T08:20:01.704Z,256
2018-08-21T08:21:03.796Z,284
2018-08-21T08:22:05.911Z,265
2018-08-21T08:23:09.154Z,285
2018-08-21T08:24:12.270Z,299
2018-08-21T08:25:14.674Z,281
2018-08-21T08:26:16.781Z,275
2018-08-21T08:27:18.888Z,324
2018-08-21T08:28:21.002Z,304
2018-08-21T08:29:23.382Z,301
2018-08-21T08:30:25.780Z,308
2018-08-21T08:31:27.897Z,292
2018-08-21T08:32:29.993Z,254
2018-08-21T08:33:32.115Z,275
2018-08-21T08:34:34.214Z,101
2018-08-21T08:35:36.328Z,346
2018-08-21T08:36:38.812Z,224
2018-08-21T08:37:40.927Z,91
2018-08-21T08:38:43.410Z,106
2018-08-21T08:39:45.522Z,101
2018-08-21T08:40:48.024Z,82
2018-08-21T08:41:50.174Z,76
2018-08-21T08:42:52.911Z,77
2018-08-21T08:43:55.018Z,352
2018-08-21T08:44:57.134Z,285
2018-08-21T08:45:59.230Z,121
2018-08-21T08:47:05.795Z,101
2018-08-21T08:48:14.289Z,92
2018-08-21T08:49:19.112Z,87
2018-08-21T08:50:32.906Z,92
2018-08-21T08:51:39.170Z,127
2018-08-21T08:52:44.988Z,300
2018-08-21T08:53:52.898Z,161
2018-08-21T08:55:05.755Z,150
2018-08-21T08:56:15.554Z,75
2018-08-21T08:57:24.087Z,65
2018-08-21T08:58:31.105Z,66
2018-08-21T08:59:41.090Z,73
2018-08-21T09:00:48.181Z,86
2018-08-21T09:01:51.775Z,97
2018-08-21T09:02:53.905Z,97
2018-08-21T09:03:56.015Z,279
2018-08-21T09:04:58.224Z,170
2018-08-21T09:06:00.228Z,124
2018-08-21T09:07:02.344Z,117
2018-08-21T09:08:04.724Z,120
2018-08-21T09:09:07.118Z,116
2018-08-21T09:10:09.220Z,124
2018-08-21T09:11:11.629Z,113
2018-08-21T09:12:14.025Z,102
2018-08-21T09:13:16.416Z,87
2018-08-21T09:14:18.520Z,83
2018-08-21T09:15:20.981Z,85
2018-08-21T09:16:23.655Z,91
2018-08-21T09:17:25.785Z,148
2018-08-21T09:18:28.264Z,154
2018-08-21T09:19:30.681Z,88
2018-08-21T09:20:33.361Z,91
2018-08-21T09:21:35.481Z,101
2018-08-21T09:22:37.580Z,372
2018-08-21T09:23:39.682Z,123
2018-08-21T09:24:41.954Z,101
2018-08-21T09:25:44.048Z,85
2018-08-21T09:26:46.152Z,86
2018-08-21T09:27:48.653Z,105
2018-08-21T09:28:50.760Z,380
2018-08-21T09:29:52.874Z,392
2018-08-21T09:30:54.966Z,380
2018-08-21T09:31:57.060Z,217
2018-08-21T09:32:59.557Z,253
2018-08-21T09:34:01.669Z,334
2018-08-21T09:35:03.785Z,437
2018-08-21T09:36:05.889Z,415
2018-08-21T09:37:08.019Z,320
2018-08-21T09:38:10.160Z,411
2018-08-21T09:39:12.222Z,99
2018-08-21T09:40:14.732Z,100
2018-08-21T09:41:16.827Z,120
2018-08-21T09:42:18.944Z,116
2018-08-21T09:43:21.644Z,179
2018-08-21T09:44:24.369Z,160
2018-08-21T09:45:26.461Z,439
2018-08-21T09:46:28.970Z,193
2018-08-21T09:47:31.079Z,181
2018-08-21T09:48:33.181Z,212
2018-08-21T09:49:35.287Z,276
2018-08-21T09:50:37.408Z,127
2018-08-21T09:51:39.515Z,106
2018-08-21T09:52:41.623Z,364
2018-08-21T09:53:43.725Z,99
2018-08-21T09:54:45.850Z,191
2018-08-21T09:55:47.958Z,466
2018-08-21T09:56:50.075Z,476
2018-08-21T09:57:52.515Z,452
2018-08-21T09:58:55.005Z,456
2018-08-21T09:59:57.119Z,140
2018-08-21T10:00:59.239Z,125
2018-08-21T10:02:01.352Z,120
2018-08-21T10:03:03.454Z,117
2018-08-21T10:04:05.564Z,113
2018-08-21T10:05:08.362Z,103
2018-08-21T10:06:10.775Z,97
2018-08-21T10:07:12.853Z,100
2018-08-21T10:08:15.263Z,103
2018-08-21T10:09:17.359Z,121
2018-08-21T10:10:20.169Z,173
2018-08-21T10:11:22.277Z,138
2018-08-21T10:12:24.382Z,148
2018-08-21T10:13:26.516Z,125
2018-08-21T10:14:28.893Z,115
2018-08-21T10:15:31.004Z,102
2018-08-21T10:16:33.115Z,96
2018-08-21T10:17:35.521Z,93
2018-08-21T10:18:37.617Z,93
2018-08-21T10:19:39.734Z,92
2018-08-21T10:20:41.845Z,91
2018-08-21T10:21:43.945Z,91
2018-08-21T10:22:46.069Z,97
2018-08-21T10:23:48.168Z,95
2018-08-21T10:24:50.280Z,201
2018-08-21T10:25:52.411Z,110
2018-08-21T10:26:54.539Z,140
2018-08-21T10:27:56.654Z,289
2018-08-21T10:28:58.767Z,381
2018-08-21T10:30:01.274Z,240
2018-08-21T10:31:03.401Z,289
2018-08-21T10:32:05.507Z,172
2018-08-21T10:33:07.621Z,391
2018-08-21T10:34:09.748Z,204
2018-08-21T10:35:11.859Z,368
2018-08-21T10:36:13.962Z,370
2018-08-21T10:37:16.077Z,352
2018-08-21T10:38:18.176Z,143
2018-08-21T10:39:20.284Z,125
2018-08-21T10:40:22.404Z,118
2018-08-21T10:41:24.513Z,111
2018-08-21T10:42:27.012Z,106
2018-08-21T10:43:29.131Z,100
2018-08-21T10:44:31.242Z,98
2018-08-21T10:45:33.344Z,97
2018-08-21T10:46:35.469Z,96
2018-08-21T10:47:38.151Z,93
2018-08-21T10:48:40.273Z,93
2018-08-21T10:49:42.385Z,95
2018-08-21T10:50:44.507Z,99
2018-08-21T10:51:46.689Z,105
2018-08-21T10:52:49.009Z,112
2018-08-21T10:53:51.119Z,115
2018-08-21T10:54:53.222Z,120
2018-08-21T10:55:55.346Z,136
2018-08-21T10:56:57.449Z,129
2018-08-21T10:57:59.562Z,176
2018-08-21T10:59:02.065Z,310
2018-08-21T11:00:04.502Z,167
2018-08-21T11:01:06.605Z,196
2018-08-21T11:02:09.040Z,121
2018-08-21T11:03:11.144Z,445
2018-08-21T11:04:13.240Z,406
2018-08-21T11:05:15.660Z,282
2018-08-21T11:06:17.765Z,474
2018-08-21T11:07:19.871Z,474
2018-08-21T11:08:21.982Z,453
2018-08-21T11:09:24.390Z,463
2018-08-21T11:10:26.498Z,264
2018-08-21T11:11:28.620Z,307
2018-08-21T11:12:31.158Z,513
2018-08-21T11:13:33.206Z,510
2018-08-21T11:14:35.318Z,175
2018-08-21T11:15:37.445Z,155
2018-08-21T11:16:40.128Z,152
2018-08-21T11:17:42.248Z,149
2018-08-21T11:18:44.364Z,144
2018-08-21T11:19:46.855Z,141
2018-08-21T11:20:48.981Z,144
2018-08-21T11:21:51.095Z,160
2018-08-21T11:22:53.494Z,175
2018-08-21T11:23:56.323Z,258
2018-08-21T11:24:58.798Z,186
2018-08-21T11:26:00.900Z,137
2018-08-21T11:27:03.035Z,120
2018-08-21T11:28:05.154Z,153
2018-08-21T11:29:07.254Z,163
2018-08-21T11:30:09.377Z,122
2018-08-21T11:31:11.491Z,132
2018-08-21T11:32:13.606Z,174
2018-08-21T11:33:15.705Z,422
2018-08-21T11:34:17.830Z,398
2018-08-21T11:35:19.936Z,270
2018-08-21T11:36:22.045Z,424
2018-08-21T11:37:24.167Z,436
2018-08-21T11:38:26.270Z,448
2018-08-21T11:39:28.383Z,452
2018-08-21T11:40:30.512Z,465
2018-08-21T11:41:32.623Z,473
2018-08-21T11:42:34.739Z,498
2018-08-21T11:43:36.843Z,506
2018-08-21T11:44:39.338Z,261
2018-08-21T11:45:41.720Z,189
2018-08-21T11:46:44.137Z,192
2018-08-21T11:47:46.253Z,146
2018-08-21T11:48:48.376Z,138
2018-08-21T11:49:50.481Z,176
2018-08-21T11:50:52.608Z,131
2018-08-21T11:51:55.006Z,132
2018-08-21T11:52:57.118Z,140
2018-08-21T11:53:59.565Z,161
2018-08-21T11:55:01.974Z,295
2018-08-21T11:56:04.092Z,317
2018-08-21T11:57:07.109Z,128
2018-08-21T11:58:09.462Z,186
2018-08-21T11:59:11.566Z,241
2018-08-21T12:00:13.683Z,165
2018-08-21T12:01:15.803Z,179
2018-08-21T12:02:18.201Z,425
2018-08-21T12:03:20.330Z,404
2018-08-21T12:04:22.742Z,430
2018-08-21T12:05:25.153Z,438
2018-08-21T12:06:27.256Z,411
2018-08-21T12:07:29.380Z,408
2018-08-21T12:08:31.488Z,404
2018-08-21T12:09:33.889Z,397
2018-08-21T12:10:36.012Z,373
2018-08-21T12:11:38.116Z,369
2018-08-21T12:12:40.229Z,405
2018-08-21T12:13:42.365Z,420
2018-08-21T12:14:44.555Z,419
2018-08-21T12:15:47.043Z,416
2018-08-21T12:16:49.162Z,421
2018-08-21T12:17:51.565Z,457
2018-08-21T12:18:53.683Z,471
2018-08-21T12:19:56.104Z,471
2018-08-21T12:20:58.217Z,452
2018-08-21T12:22:00.335Z,438
2018-08-21T12:23:02.735Z,387
2018-08-21T12:24:04.860Z,401
2018-08-21T12:25:06.978Z,410
2018-08-21T12:26:09.381Z,413
2018-08-21T12:27:11.516Z,429
2018-08-21T12:28:13.649Z,407
2018-08-21T12:29:16.075Z,265
2018-08-21T12:30:18.184Z,384
2018-08-21T12:31:20.315Z,375
2018-08-21T12:32:22.422Z,356
2018-08-21T12:33:24.845Z,377
2018-08-21T12:34:26.973Z,356
2018-08-21T12:35:29.369Z,362
2018-08-21T12:36:31.495Z,393
2018-08-21T12:37:33.621Z,404
2018-08-21T12:38:36.037Z,393
2018-08-21T12:39:38.142Z,385
2018-08-21T12:40:40.268Z,390
2018-08-21T12:41:42.384Z,400
2018-08-21T12:42:44.498Z,408
2018-08-21T12:43:46.632Z,410
2018-08-21T12:44:48.737Z,414
2018-08-21T12:45:51.246Z,216
2018-08-21T12:46:53.378Z,169
2018-08-21T12:47:55.504Z,408
2018-08-21T12:48:57.923Z,403
2018-08-21T12:50:00.041Z,390
2018-08-21T12:51:02.151Z,376
2018-08-21T12:52:04.271Z,376
2018-08-21T12:53:06.401Z,403
2018-08-21T12:54:08.519Z,401
2018-08-21T12:55:10.925Z,393
2018-08-21T12:56:13.055Z,350
2018-08-21T12:57:15.172Z,155
2018-08-21T12:58:17.288Z,443
2018-08-21T12:59:19.399Z,309
2018-08-21T13:00:21.539Z,413
2018-08-21T13:01:23.653Z,425
2018-08-21T13:02:25.776Z,393
2018-08-21T13:03:28.478Z,367
2018-08-21T13:04:30.611Z,387
2018-08-21T13:05:32.721Z,416
2018-08-21T13:06:34.840Z,421
2018-08-21T13:07:36.963Z,401
2018-08-21T13:08:39.065Z,395
2018-08-21T13:09:41.193Z,394
2018-08-21T13:10:43.313Z,379
2018-08-21T13:11:45.435Z,369
2018-08-21T13:12:47.539Z,350
2018-08-21T13:13:50.057Z,339
2018-08-21T13:14:52.561Z,340
2018-08-21T13:15:54.721Z,362
2018-08-21T13:16:57.216Z,352
2018-08-21T13:17:59.615Z,369
2018-08-21T13:19:01.735Z,361
2018-08-21T13:20:04.174Z,383
2018-08-21T13:21:06.294Z,382
2018-08-21T13:22:08.404Z,356
2018-08-21T13:23:10.834Z,347
2018-08-21T13:24:12.941Z,355
2018-08-21T13:25:15.061Z,300
2018-08-21T13:26:17.192Z,248
2018-08-21T13:27:19.316Z,243
2018-08-21T13:28:21.427Z,286
2018-08-21T13:29:23.600Z,277
2018-08-21T13:30:25.681Z,329
2018-08-21T13:31:27.798Z,347
2018-08-21T13:32:29.928Z,335
2018-08-21T13:33:32.423Z,286
2018-08-21T13:34:34.545Z,226
2018-08-21T13:35:36.683Z,341
2018-08-21T13:36:38.952Z,192
2018-08-21T13:37:40.931Z,195
2018-08-21T13:38:44.474Z,240
2018-08-21T13:39:47.084Z,233
2018-08-21T13:40:49.492Z,182
2018-08-21T13:41:52.074Z,280
2018-08-21T13:42:54.466Z,180
2018-08-21T13:43:57.338Z,333
2018-08-21T13:44:59.454Z,288
2018-08-21T13:46:01.597Z,292
2018-08-21T13:47:03.998Z,318
2018-08-21T13:48:06.517Z,296
2018-08-21T13:49:09.244Z,298
2018-08-21T13:50:11.742Z,293
2018-08-21T13:51:13.873Z,278
2018-08-21T13:52:16.001Z,281
2018-08-21T13:53:18.113Z,281
2018-08-21T13:54:20.239Z,296
2018-08-21T13:55:22.367Z,304
2018-08-21T13:56:24.491Z,306
2018-08-21T13:57:26.916Z,314
2018-08-21T13:58:29.080Z,302
2018-08-21T13:59:31.147Z,309
2018-08-21T14:00:33.271Z,327
2018-08-21T14:01:35.696Z,341
2018-08-21T14:02:37.804Z,330
2018-08-21T14:03:39.933Z,327
2018-08-21T14:04:42.073Z,309
2018-08-21T14:05:44.208Z,298
2018-08-21T14:06:46.333Z,287
2018-08-21T14:07:48.442Z,302
2018-08-21T14:08:50.622Z,318
2018-08-21T14:09:52.678Z,309
2018-08-21T14:10:55.203Z,290
2018-08-21T14:11:57.313Z,288
2018-08-21T14:12:59.493Z,288
2018-08-21T14:14:01.568Z,282
2018-08-21T14:15:03.692Z,275
2018-08-21T14:16:05.808Z,292
2018-08-21T14:17:07.928Z,306
2018-08-21T14:18:10.052Z,295
2018-08-21T14:19:12.585Z,273
2018-08-21T14:20:14.706Z,264
2018-08-21T14:21:16.830Z,267
2018-08-21T14:22:18.955Z,277
2018-08-21T14:23:21.073Z,287
2018-08-21T14:24:23.508Z,273
2018-08-21T14:25:25.635Z,278
2018-08-21T14:26:27.746Z,293
2018-08-21T14:27:29.874Z,285
2018-08-21T14:28:32.006Z,271
2018-08-21T14:29:34.125Z,255
2018-08-21T14:30:36.551Z,254
2018-08-21T14:31:38.678Z,265
2018-08-21T14:32:41.101Z,280
2018-08-21T14:33:43.521Z,274
2018-08-21T14:34:46.633Z,269
2018-08-21T14:35:49.140Z,265
2018-08-21T14:36:51.273Z,265
2018-08-21T14:37:53.706Z,266
2018-08-21T14:38:56.289Z,261
2018-08-21T14:39:58.415Z,267
2018-08-21T14:41:00.544Z,271
2018-08-21T14:42:02.982Z,259
2018-08-21T14:43:05.097Z,261
2018-08-21T14:44:07.238Z,272
2018-08-21T14:45:09.699Z,261
2018-08-21T14:46:11.979Z,247